createdAt,value
2022-09-02T04:29:54.508Z,19.22
2022-09-02T04:32:21.836Z,19.22
2022-09-02T04:34:49.996Z,19.26
2022-09-02T04:37:16.825Z,19.30
2022-09-02T04:39:43.460Z,19.33
2022-09-02T04:42:09.919Z,19.68
2022-09-02T04:44:36.672Z,19.42
2022-09-02T04:47:03.315Z,19.37
2022-09-02T04:49:32.179Z,19.68
2022-09-02T04:52:00.251Z,19.26
2022-09-02T04:54:27.217Z,19.13
2022-09-02T04:56:54.022Z,19.05
2022-09-02T04:59:21.444Z,18.99
2022-09-02T05:01:50.349Z,18.98
2022-09-02T05:04:17.147Z,18.99
2022-09-02T05:06:44.701Z,19.34
2022-09-02T05:09:11.336Z,19.42
2022-09-02T05:11:38.893Z,19.17
2022-09-02T05:14:06.902Z,19.19
2022-09-02T05:16:37.863Z,19.25
2022-09-02T05:19:06.304Z,19.27
2022-09-02T05:21:33.426Z,19.32
2022-09-02T05:24:01.212Z,19.37
2022-09-02T05:26:27.977Z,19.43
2022-09-02T05:28:54.479Z,19.49
2022-09-02T05:31:21.450Z,19.86
2022-09-02T05:33:48.824Z,19.67
2022-09-02T05:36:18.719Z,19.70
2022-09-02T05:38:45.550Z,19.70
2022-09-02T05:41:16.065Z,19.77
2022-09-02T05:43:47.157Z,19.77
2022-09-02T05:46:17.857Z,19.82
2022-09-02T05:49:04.700Z,19.85
2022-09-02T05:51:41.606Z,19.89
2022-09-02T05:54:19.818Z,19.92
2022-09-02T05:56:47.777Z,19.86
2022-09-02T05:59:14.402Z,19.82
2022-09-02T06:01:40.862Z,20.14
2022-09-02T06:04:07.898Z,19.79
2022-09-02T06:06:35.944Z,19.73
2022-09-02T06:09:04.298Z,19.69
2022-09-02T06:11:30.786Z,19.64
2022-09-02T06:13:57.459Z,19.59
2022-09-02T06:16:24.034Z,19.89
2022-09-02T06:18:51.500Z,19.60
2022-09-02T06:21:20.837Z,19.53
2022-09-02T06:23:47.939Z,19.52
2022-09-02T06:26:15.648Z,19.52
2022-09-02T06:28:42.339Z,19.53
2022-09-02T06:31:11.665Z,19.58
2022-09-02T06:33:38.220Z,19.57
2022-09-02T06:36:08.879Z,19.92
2022-09-02T06:38:45.171Z,19.73
2022-09-02T06:41:14.771Z,19.69
2022-09-02T06:43:42.754Z,19.69
2022-09-02T06:46:16.342Z,19.76
2022-09-02T06:48:42.871Z,19.75
2022-09-02T06:51:09.446Z,20.12
2022-09-02T06:53:35.932Z,19.93
2022-09-02T06:56:02.391Z,20.27
2022-09-02T06:58:28.956Z,20.07
2022-09-02T07:00:55.467Z,20.41
2022-09-02T07:03:40.760Z,20.25
2022-09-02T07:06:09.732Z,20.32
2022-09-02T07:08:41.661Z,20.43
2022-09-02T07:11:17.709Z,20.53
2022-09-02T07:13:44.520Z,20.56
2022-09-02T07:16:11.633Z,20.63
2022-09-02T07:18:44.122Z,20.71
2022-09-02T07:21:13.401Z,20.76
2022-09-02T07:23:41.173Z,20.80
2022-09-02T07:26:15.983Z,20.92
2022-09-02T07:28:43.236Z,20.91
2022-09-02T07:31:11.166Z,20.97
2022-09-02T07:33:38.665Z,21.04
2022-09-02T07:36:06.717Z,21.11
2022-09-02T07:38:40.464Z,21.16
2022-09-02T07:41:08.189Z,21.26
2022-09-02T07:43:37.333Z,21.34
2022-09-02T07:46:05.582Z,21.41
2022-09-02T07:48:33.033Z,21.51
2022-09-02T07:51:02.298Z,21.58
2022-09-02T07:53:29.269Z,21.65
2022-09-02T07:55:55.977Z,21.73
2022-09-02T07:58:23.762Z,21.81
2022-09-02T08:00:50.870Z,21.91
2022-09-02T08:03:17.582Z,22.01
2022-09-02T08:05:47.062Z,22.10
2022-09-02T08:08:15.776Z,22.22
2022-09-02T08:10:42.998Z,22.34
2022-09-02T08:13:10.602Z,22.44
2022-09-02T08:15:38.930Z,22.55
2022-09-02T08:18:06.858Z,22.64
2022-09-02T08:20:35.009Z,22.72
2022-09-02T08:23:11.473Z,22.84
2022-09-02T08:25:40.838Z,22.92
2022-09-02T08:28:07.987Z,23.02
2022-09-02T08:30:34.834Z,23.13
2022-09-02T08:33:01.718Z,23.24
2022-09-02T08:35:28.295Z,23.34
2022-09-02T08:37:54.890Z,23.47
2022-09-02T08:40:24.750Z,23.59
2022-09-02T08:42:56.560Z,23.73
2022-09-02T08:45:29.852Z,23.81
2022-09-02T08:48:09.590Z,23.94
2022-09-02T08:50:38.534Z,24.04
2022-09-02T08:53:35.662Z,24.24
2022-09-02T08:56:05.072Z,24.28
2022-09-02T08:58:41.291Z,24.42
2022-09-02T09:01:21.128Z,24.52
2022-09-02T09:04:06.286Z,24.66
2022-09-02T09:07:14.808Z,24.81
2022-09-02T09:09:44.231Z,24.83
2022-09-02T09:12:48.592Z,25.03
2022-09-02T09:15:46.087Z,25.17
2022-09-02T09:18:18.573Z,25.23
2022-09-02T09:20:46.492Z,25.32
2022-09-02T09:23:25.762Z,25.49
2022-09-02T09:25:56.184Z,25.57
2022-09-02T09:28:22.787Z,25.67
2022-09-02T09:30:49.433Z,25.79
2022-09-02T09:33:22.305Z,25.90
2022-09-02T09:35:52.101Z,26.00
2022-09-02T09:38:36.229Z,26.15
2022-09-02T09:41:28.990Z,26.32
2022-09-02T09:43:55.451Z,26.33
2022-09-02T09:46:31.029Z,26.46
2022-09-02T09:48:58.093Z,26.52
2022-09-02T09:51:24.773Z,26.62
2022-09-02T09:53:51.792Z,26.70
2022-09-02T09:56:18.745Z,26.81
2022-09-02T09:58:47.320Z,26.94
2022-09-02T10:01:17.240Z,27.05
2022-09-02T10:03:57.063Z,27.18
2022-09-02T10:06:30.011Z,27.26
2022-09-02T10:09:01.685Z,27.31
2022-09-02T10:11:30.869Z,27.40
2022-09-02T10:14:02.644Z,27.53
2022-09-02T10:16:54.617Z,27.72
2022-09-02T10:19:34.348Z,27.82
2022-09-02T10:22:00.817Z,27.90
2022-09-02T10:24:56.729Z,28.11
2022-09-02T10:27:47.596Z,28.26
2022-09-02T10:30:20.916Z,28.35
2022-09-02T10:33:32.025Z,28.57
2022-09-02T10:36:32.772Z,28.64
2022-09-02T10:39:32.605Z,28.81
2022-09-02T10:42:24.612Z,28.93
2022-09-02T10:45:03.073Z,29.06
2022-09-02T10:47:37.870Z,29.15
2022-09-02T10:50:23.213Z,29.28
2022-09-02T10:52:55.385Z,29.34
2022-09-02T10:55:44.231Z,29.45
2022-09-02T10:58:35.693Z,29.55
2022-09-02T11:01:03.816Z,29.61
2022-09-02T11:03:32.952Z,29.71
2022-09-02T11:06:11.616Z,29.87
2022-09-02T11:08:49.385Z,29.97
2022-09-02T11:11:36.999Z,30.06
2022-09-02T11:14:21.151Z,30.20
2022-09-02T11:16:56.433Z,30.34
2022-09-02T11:19:33.041Z,30.42
2022-09-02T11:22:35.676Z,30.62
2022-09-02T11:25:22.790Z,30.70
2022-09-02T11:28:07.538Z,30.77
2022-09-02T11:33:21.537Z,30.73
2022-09-02T11:35:48.317Z,30.66
2022-09-02T11:38:15.206Z,30.61
2022-09-02T11:44:00.783Z,30.45
2022-09-02T11:46:46.415Z,30.39
2022-09-02T11:49:44.062Z,30.31
2022-09-02T11:52:25.587Z,30.48
2022-09-02T11:55:09.794Z,30.18
2022-09-02T11:57:40.874Z,29.92
2022-09-02T12:00:13.118Z,29.87
2022-09-02T12:02:51.606Z,29.87
2022-09-02T12:05:30.504Z,29.84
2022-09-02T12:08:06.602Z,29.68
2022-09-02T12:10:40.015Z,29.74
2022-09-02T12:13:09.734Z,29.59
2022-09-02T12:15:37.191Z,29.54
2022-09-02T12:18:28.473Z,29.56
2022-09-02T12:20:58.368Z,29.48
2022-09-02T12:23:55.991Z,29.55
2022-09-02T12:26:29.139Z,29.39
2022-09-02T12:29:12.593Z,29.39
2022-09-02T12:31:43.318Z,29.19
2022-09-02T12:34:22.440Z,29.18
2022-09-02T12:36:54.091Z,28.91
2022-09-02T12:39:23.424Z,28.80
2022-09-02T12:42:10.247Z,28.81
2022-09-02T12:44:55.619Z,28.56
2022-09-02T12:47:41.562Z,28.47
2022-09-02T12:50:27.212Z,28.56
2022-09-02T12:53:08.076Z,28.63
2022-09-02T12:55:36.452Z,28.63
2022-09-02T12:58:12.097Z,28.76
2022-09-02T13:00:58.709Z,28.88
2022-09-02T13:03:31.101Z,28.86
2022-09-02T13:06:22.773Z,28.96
2022-09-02T13:09:07.000Z,28.98
2022-09-02T13:11:48.424Z,29.02
2022-09-02T13:14:26.992Z,29.07
2022-09-02T13:17:36.972Z,29.22
2022-09-02T13:20:41.396Z,29.33
2022-09-02T13:23:45.428Z,29.43
2022-09-02T13:26:48.905Z,29.48
2022-09-02T13:29:30.409Z,29.51
2022-09-02T13:32:14.336Z,29.50
2022-09-02T13:34:43.045Z,29.33
2022-09-02T13:37:30.610Z,29.42
2022-09-02T13:39:58.077Z,29.22
2022-09-02T13:42:31.961Z,29.18
2022-09-02T13:45:18.634Z,29.26
2022-09-02T13:47:48.365Z,29.05
2022-09-02T13:50:18.410Z,29.00
2022-09-02T13:53:49.203Z,28.95
2022-09-02T13:55:35.117Z,28.90
2022-09-02T13:58:06.225Z,28.89
2022-09-02T14:00:38.973Z,28.85
2022-09-02T14:03:16.704Z,28.88
2022-09-02T14:05:50.073Z,28.81
2022-09-02T14:08:27.029Z,28.74
2022-09-02T14:10:54.337Z,28.70
2022-09-02T14:13:23.199Z,28.71
2022-09-02T14:15:49.938Z,28.71
2022-09-02T14:18:18.368Z,28.76
2022-09-02T14:21:19.211Z,28.90
2022-09-02T14:23:51.490Z,28.92
2022-09-02T14:26:31.604Z,29.05
2022-09-02T14:28:58.209Z,29.01
2022-09-02T14:31:30.616Z,29.03
2022-09-02T14:33:58.269Z,29.02
2022-09-02T14:36:24.811Z,29.01
2022-09-02T14:38:57.290Z,29.03
2022-09-02T14:41:30.642Z,28.99
2022-09-02T14:44:10.220Z,28.93
2022-09-02T14:46:46.668Z,28.99
2022-09-02T14:49:21.978Z,28.89
2022-09-02T14:51:57.663Z,28.91
2022-09-02T14:54:41.517Z,28.99
2022-09-02T14:57:33.113Z,28.99
2022-09-02T15:00:02.159Z,28.87
2022-09-02T15:02:28.643Z,28.90
2022-09-02T15:04:57.339Z,28.97
2022-09-02T15:07:25.014Z,29.01
2022-09-02T15:09:52.610Z,29.01
2022-09-02T15:12:26.403Z,29.04
2022-09-02T15:14:53.619Z,29.01
2022-09-02T15:17:21.180Z,28.99
2022-09-02T15:19:48.091Z,28.96
2022-09-02T15:22:16.257Z,28.90
2022-09-02T15:24:43.602Z,28.87
2022-09-02T15:27:11.353Z,28.83
2022-09-02T15:29:37.917Z,28.78
2022-09-02T15:32:04.731Z,28.72
2022-09-02T15:34:32.231Z,28.67
2022-09-02T15:36:58.963Z,28.63
2022-09-02T15:39:26.148Z,28.58
2022-09-02T15:41:55.387Z,28.50
2022-09-02T15:44:26.052Z,28.52
2022-09-02T15:46:55.856Z,28.47
2022-09-02T15:49:23.960Z,28.37
2022-09-02T15:51:51.815Z,28.37
2022-09-02T15:54:23.646Z,28.38
2022-09-02T15:56:55.416Z,28.45
2022-09-02T15:59:22.536Z,28.39
2022-09-02T16:01:51.624Z,28.41
2022-09-02T16:04:18.636Z,28.43
2022-09-02T16:06:49.195Z,28.48
2022-09-02T16:09:17.917Z,28.49
2022-09-02T16:11:50.038Z,28.50
2022-09-02T16:14:20.965Z,28.53
2022-09-02T16:16:49.949Z,28.56
2022-09-02T16:19:21.164Z,28.61
2022-09-02T16:21:48.981Z,28.60
2022-09-02T16:24:15.892Z,28.60
2022-09-02T16:26:42.869Z,28.60
2022-09-02T16:31:42.567Z,28.57
2022-09-02T16:34:14.549Z,28.55
2022-09-02T16:36:43.901Z,28.49
2022-09-02T16:39:12.984Z,28.43
2022-09-02T16:41:43.952Z,28.37
2022-09-02T16:44:22.122Z,28.37
2022-09-02T16:46:50.718Z,28.18
2022-09-02T16:49:19.637Z,28.09
2022-09-02T16:51:47.643Z,28.00
2022-09-02T16:54:17.753Z,27.94
2022-09-02T16:56:48.102Z,27.88
2022-09-02T16:59:14.826Z,27.79
2022-09-02T17:01:41.600Z,27.72
2022-09-02T17:04:08.984Z,27.65
2022-09-02T17:06:41.323Z,27.56
2022-09-02T17:09:09.046Z,27.48
2022-09-02T17:11:39.509Z,27.39
2022-09-02T17:14:11.234Z,27.37
2022-09-02T17:16:46.642Z,27.32
2022-09-02T17:19:17.064Z,27.13
2022-09-02T17:21:47.139Z,27.06
2022-09-02T17:24:15.236Z,26.95
2022-09-02T17:26:46.754Z,26.89
2022-09-02T17:29:47.104Z,26.78
2022-09-02T17:32:05.658Z,26.68
2022-09-02T17:34:33.737Z,26.60
2022-09-02T17:37:00.351Z,26.51
2022-09-02T17:39:26.902Z,26.42
2022-09-02T17:41:57.706Z,26.33
2022-09-02T17:44:35.973Z,26.32
2022-09-02T17:47:06.675Z,26.24
2022-09-02T17:49:36.588Z,26.09
2022-09-02T17:52:05.373Z,26.04
2022-09-02T17:54:31.945Z,25.96
2022-09-02T17:57:24.193Z,26.07
2022-09-02T17:59:51.113Z,25.84
2022-09-02T18:02:36.045Z,25.83
2022-09-02T18:05:06.477Z,25.71
2022-09-02T18:08:03.808Z,25.83
2022-09-02T18:10:34.864Z,25.67
2022-09-02T18:13:04.715Z,25.54
2022-09-02T18:15:38.584Z,25.47
2022-09-02T18:18:05.944Z,25.35
2022-09-02T18:20:43.819Z,25.40
2022-09-02T18:23:35.440Z,25.28
2022-09-02T18:26:30.313Z,25.29
2022-09-02T18:29:25.550Z,25.25
2022-09-02T18:31:54.684Z,24.95
2022-09-02T18:34:35.160Z,24.94
2022-09-02T18:37:23.697Z,24.97
2022-09-02T18:40:02.021Z,24.71
2022-09-02T18:43:00.968Z,24.72
2022-09-02T18:45:35.631Z,24.60
2022-09-02T18:48:09.174Z,24.54
2022-09-02T18:50:52.031Z,24.50
2022-09-02T18:53:23.084Z,24.37
2022-09-02T18:55:52.094Z,24.27
2022-09-02T18:58:34.936Z,24.28
2022-09-02T19:01:23.841Z,24.23
2022-09-02T19:03:50.731Z,24.05
2022-09-02T19:06:20.212Z,23.96
2022-09-02T19:08:48.035Z,23.86
2022-09-02T19:11:16.823Z,23.83
2022-09-02T19:13:52.765Z,23.81
2022-09-02T19:16:28.392Z,23.80
2022-09-02T19:18:55.347Z,23.63
2022-09-02T19:21:37.603Z,23.65
2022-09-02T19:24:08.398Z,23.54
2022-09-02T19:26:35.919Z,23.46
2022-09-02T19:29:04.899Z,23.41
2022-09-02T19:31:31.726Z,23.37
2022-09-02T19:34:01.988Z,23.37
2022-09-02T19:36:31.796Z,23.32
2022-09-02T19:38:58.895Z,23.25
2022-09-02T19:41:25.807Z,23.21
2022-09-02T19:43:54.066Z,23.18
2022-09-02T19:46:45.441Z,23.14
2022-09-02T19:49:08.411Z,23.11
2022-09-02T19:51:34.992Z,23.06
2022-09-02T19:54:01.483Z,23.03
2022-09-02T19:56:28.175Z,23.44
2022-09-02T19:58:54.746Z,23.05
2022-09-02T20:01:21.267Z,22.97
2022-09-02T20:03:47.871Z,22.92
2022-09-02T20:06:14.355Z,22.89
2022-09-02T20:08:40.768Z,23.29
2022-09-02T20:11:07.418Z,22.89
2022-09-02T20:13:40.105Z,22.84
2022-09-02T20:16:16.749Z,22.91
2022-09-02T20:18:48.275Z,22.81
2022-09-02T20:21:27.726Z,22.88
2022-09-02T20:23:58.295Z,22.71
2022-09-02T20:26:39.688Z,22.76
2022-09-02T20:29:31.363Z,22.77
2022-09-02T20:32:19.123Z,22.71
2022-09-02T20:34:56.171Z,22.56
2022-09-02T20:37:22.795Z,22.90
2022-09-02T20:39:59.643Z,22.56
2022-09-02T20:42:57.295Z,22.55
2022-09-02T20:45:38.315Z,22.37
2022-09-02T20:48:28.040Z,22.30
2022-09-02T20:51:21.899Z,22.38
2022-09-02T20:54:08.252Z,22.27
2022-09-02T20:56:53.109Z,22.14
2022-09-02T20:59:39.642Z,22.26
2022-09-02T21:02:10.171Z,22.06
2022-09-02T21:04:45.032Z,22.09
2022-09-02T21:07:17.285Z,22.01
2022-09-02T21:09:53.290Z,22.00
2022-09-02T21:12:32.421Z,21.96
2022-09-02T21:15:26.464Z,22.06
2022-09-02T21:18:02.505Z,21.91
2022-09-02T21:20:46.157Z,21.99
2022-09-02T21:23:31.224Z,21.95
2022-09-02T21:26:04.055Z,21.86
2022-09-02T21:28:35.364Z,21.77
2022-09-02T21:31:17.884Z,21.86
2022-09-02T21:33:45.651Z,21.73
2022-09-02T21:36:26.898Z,21.79
2022-09-02T21:38:57.944Z,21.68
2022-09-02T21:42:08.645Z,21.86
2022-09-02T21:45:01.002Z,21.74
2022-09-02T21:47:37.921Z,21.59
2022-09-02T21:50:10.609Z,21.48
2022-09-02T21:53:08.769Z,21.60
2022-09-02T21:55:46.073Z,21.79
2022-09-02T21:58:50.262Z,21.54
2022-09-02T22:01:44.458Z,21.45
2022-09-02T22:04:22.594Z,21.31
2022-09-02T22:07:19.052Z,21.25
2022-09-02T22:09:57.442Z,21.22
2022-09-02T22:12:26.345Z,21.11
2022-09-02T22:15:07.919Z,21.20
2022-09-02T22:17:37.418Z,21.08
2022-09-02T22:20:07.531Z,21.07
2022-09-02T22:22:46.148Z,21.10
2022-09-02T22:25:16.956Z,20.98
2022-09-02T22:27:49.678Z,20.97
2022-09-02T22:30:17.778Z,20.91
2022-09-02T22:32:46.618Z,20.89
2022-09-02T22:35:28.564Z,20.92
